FMNM/MJN METAR and TAF weather

Enter ICAO airport designator
Station Type Date Time Source
FMNM METAR 2018/09/20 18:00 UTC NOAA

FMNM 201800Z 12008KT CAVOK 27/18 Q1016 NOSIG


Station Type Date Time Source
FMNM Decoded METAR 2018/09/20 18:00 UTC NOAA

Majunga, Madagascar (FMNM) 15-40S 046-21E 18M
Sep 20, 2018 - 02:00 PM EDT / 2018.09.20 1800 UTC
Wind: from the ESE (120 degrees) at 9 MPH (8 KT):0
Visibility: greater than 7 mile(s):0
Temperature: 80 F (27 C)
Dew Point: 64 F (18 C)
Relative Humidity: 57%
Pressure (altimeter): 30.00 in. Hg (1016 hPa)
ob: FMNM 201800Z 12008KT CAVOK 27/18 Q1016 NOSIG
cycle: 18

Station Type Date Time Source
FMNM TAF 2018/09/20 18:06 UTC NOAA

TAF FMNM 201700Z 2018/2118 12007KT 9999 FEW023
BECMG 2110/2113 32010KT


Example: see airport list